createdAt,value
2022-09-01T00:01:53.566Z,56.16
2022-09-01T00:04:23.259Z,55.72
2022-09-01T00:06:50.123Z,55.58
2022-09-01T00:09:19.822Z,55.18
2022-09-01T00:11:50.483Z,55.03
2022-09-01T00:14:30.068Z,55.07
2022-09-01T00:17:02.782Z,54.90
2022-09-01T00:19:29.840Z,54.62
2022-09-01T00:21:56.945Z,54.68
2022-09-01T00:24:26.340Z,54.63
2022-09-01T00:26:54.395Z,54.18
2022-09-01T00:29:21.115Z,54.19
2022-09-01T00:31:48.063Z,54.82
2022-09-01T00:34:15.387Z,54.55
2022-09-01T00:36:42.109Z,54.08
2022-09-01T00:39:09.017Z,54.08
2022-09-01T00:41:40.066Z,53.63
2022-09-01T00:44:12.081Z,53.61
2022-09-01T00:46:47.683Z,54.14
2022-09-01T00:49:24.428Z,54.01
2022-09-01T00:51:57.518Z,54.09
2022-09-01T00:54:27.131Z,53.78
2022-09-01T00:56:57.976Z,54.22
2022-09-01T00:59:26.168Z,53.54
2022-09-01T01:01:53.654Z,53.36
2022-09-01T01:04:20.840Z,53.30
2022-09-01T01:06:58.763Z,53.21
2022-09-01T01:09:27.164Z,53.73
2022-09-01T01:11:54.223Z,53.75
2022-09-01T01:14:20.998Z,53.75
2022-09-01T01:16:52.408Z,54.09
2022-09-01T01:19:43.844Z,53.94
2022-09-01T01:22:34.321Z,53.49
2022-09-01T01:25:02.317Z,53.59
2022-09-01T01:27:38.064Z,53.81
2022-09-01T01:30:12.830Z,54.04
2022-09-01T01:32:43.337Z,54.01
2022-09-01T01:35:15.027Z,54.09
2022-09-01T01:37:49.253Z,54.63
2022-09-01T01:40:22.993Z,54.59
2022-09-01T01:42:52.078Z,55.04
2022-09-01T01:45:21.687Z,54.22
2022-09-01T01:47:56.799Z,53.66
2022-09-01T01:50:36.034Z,54.42
2022-09-01T01:53:10.967Z,54.38
2022-09-01T01:55:40.713Z,54.41
2022-09-01T01:58:08.343Z,54.63
2022-09-01T02:00:35.224Z,54.68
2022-09-01T02:03:03.371Z,54.22
2022-09-01T02:05:34.923Z,54.24
2022-09-01T02:08:08.159Z,54.14
2022-09-01T02:10:44.354Z,54.52
2022-09-01T02:13:16.559Z,54.96
2022-09-01T02:15:47.154Z,54.70
2022-09-01T02:18:28.075Z,54.47
2022-09-01T02:20:59.128Z,54.56
2022-09-01T02:23:25.950Z,54.31
2022-09-01T02:26:15.728Z,54.40
2022-09-01T02:28:45.512Z,54.93
2022-09-01T02:31:12.679Z,55.20
2022-09-01T02:33:40.999Z,55.61
2022-09-01T02:36:14.067Z,55.86
2022-09-01T02:38:46.852Z,56.05
2022-09-01T02:41:23.259Z,55.93
2022-09-01T02:43:56.033Z,55.96
2022-09-01T02:46:24.669Z,56.34
2022-09-01T02:48:52.807Z,56.24
2022-09-01T02:51:22.754Z,56.41
2022-09-01T02:53:52.930Z,56.71
2022-09-01T02:56:25.738Z,56.82
2022-09-01T02:58:54.274Z,56.77
2022-09-01T03:01:25.809Z,57.18
2022-09-01T03:03:55.603Z,57.59
2022-09-01T03:06:24.565Z,57.79
2022-09-01T03:08:59.807Z,57.57
2022-09-01T03:11:28.090Z,58.17
2022-09-01T03:13:56.862Z,58.18
2022-09-01T03:16:23.710Z,58.39
2022-09-01T03:18:51.941Z,58.44
2022-09-01T03:21:20.359Z,58.90
2022-09-01T03:23:50.011Z,58.96
2022-09-01T03:26:19.510Z,59.06
2022-09-01T03:28:46.580Z,59.04
2022-09-01T03:31:14.501Z,59.16
2022-09-01T03:33:42.392Z,59.44
2022-09-01T03:36:22.274Z,59.50
2022-09-01T03:38:49.979Z,59.76
2022-09-01T03:41:21.758Z,59.86
2022-09-01T03:43:49.169Z,60.29
2022-09-01T03:46:21.884Z,60.28
2022-09-01T03:48:55.959Z,60.73
2022-09-01T03:51:23.594Z,60.70
2022-09-01T03:53:54.638Z,61.00
2022-09-01T03:56:24.262Z,61.25
2022-09-01T03:58:52.202Z,61.46
2022-09-01T04:01:19.569Z,61.72
2022-09-01T04:03:51.048Z,62.15
2022-09-01T04:06:24.285Z,61.98
2022-09-01T04:08:56.989Z,62.02
2022-09-01T04:11:25.430Z,62.35
2022-09-01T04:13:53.159Z,62.35
2022-09-01T04:16:44.780Z,62.49
2022-09-01T04:19:25.782Z,63.04
2022-09-01T04:22:01.304Z,63.26
2022-09-01T04:24:36.001Z,63.24
2022-09-01T04:27:03.644Z,63.27
2022-09-01T04:29:32.056Z,63.62
2022-09-01T04:32:03.895Z,63.56
2022-09-01T04:34:37.631Z,63.98
2022-09-01T04:37:13.366Z,64.17
2022-09-01T04:39:53.689Z,64.79
2022-09-01T04:42:24.326Z,64.88
2022-09-01T04:44:53.729Z,64.99
2022-09-01T04:47:35.566Z,64.93
2022-09-01T04:50:14.517Z,64.96
2022-09-01T04:52:46.073Z,65.38
2022-09-01T04:55:29.931Z,65.61
2022-09-01T04:57:59.244Z,65.33
2022-09-01T05:00:28.037Z,65.80
2022-09-01T05:03:03.170Z,65.64
2022-09-01T05:05:45.402Z,65.76
2022-09-01T05:08:23.451Z,66.23
2022-09-01T05:10:55.919Z,66.22
2022-09-01T05:13:39.724Z,66.32
2022-09-01T05:16:13.362Z,66.53
2022-09-01T05:18:49.095Z,66.63
2022-09-01T05:21:20.127Z,66.83
2022-09-01T05:23:47.945Z,66.90
2022-09-01T05:26:19.277Z,66.99
2022-09-01T05:28:53.903Z,66.99
2022-09-01T05:31:21.534Z,67.23
2022-09-01T05:33:51.090Z,67.00
2022-09-01T05:36:20.370Z,67.37
2022-09-01T05:38:48.296Z,67.40
2022-09-01T05:41:17.544Z,67.29
2022-09-01T05:43:46.699Z,67.20
2022-09-01T05:46:17.162Z,67.40
2022-09-01T05:48:45.523Z,67.40
2022-09-01T05:51:42.841Z,67.09
2022-09-01T05:54:09.477Z,67.38
2022-09-01T05:56:43.706Z,67.26
2022-09-01T05:59:23.315Z,67.27
2022-09-01T06:01:53.655Z,67.06
2022-09-01T06:04:25.841Z,66.79
2022-09-01T06:07:05.326Z,66.62
2022-09-01T06:09:43.082Z,66.63
2022-09-01T06:12:23.263Z,66.77
2022-09-01T06:14:51.839Z,66.78
2022-09-01T06:17:25.183Z,66.13
2022-09-01T06:19:55.829Z,65.98
2022-09-01T06:22:24.141Z,65.18
2022-09-01T06:24:56.893Z,64.39
2022-09-01T06:27:28.344Z,63.25
2022-09-01T06:29:56.380Z,62.63
2022-09-01T06:32:26.075Z,61.71
2022-09-01T06:34:54.810Z,61.10
2022-09-01T06:37:23.133Z,60.52
2022-09-01T06:39:53.218Z,59.62
2022-09-01T06:42:20.477Z,59.72
2022-09-01T06:44:53.092Z,58.85
2022-09-01T06:47:20.186Z,58.82
2022-09-01T06:49:46.935Z,58.29
2022-09-01T06:52:23.741Z,57.34
2022-09-01T06:54:53.423Z,58.60
2022-09-01T07:00:21.173Z,58.33
2022-09-01T07:02:56.508Z,57.93
2022-09-01T07:09:20.229Z,57.33
2022-09-01T07:12:24.871Z,57.25
2022-09-01T07:17:50.311Z,56.85
2022-09-01T07:20:29.389Z,56.61
2022-09-01T07:23:06.442Z,55.52
2022-09-01T07:28:39.992Z,53.62
2022-09-01T07:39:49.168Z,49.82
2022-09-01T07:45:48.082Z,47.82
2022-09-01T07:48:36.742Z,47.14
2022-09-01T07:51:37.187Z,43.71
2022-09-01T07:54:06.015Z,44.69
2022-09-01T07:56:39.455Z,43.42
2022-09-01T07:59:08.359Z,43.33
2022-09-01T08:01:38.114Z,42.89
2022-09-01T08:04:05.025Z,42.08
2022-09-01T08:06:39.318Z,41.54
2022-09-01T08:09:11.493Z,40.63
2022-09-01T08:14:25.955Z,39.35
2022-09-01T08:16:53.223Z,39.50
2022-09-01T08:19:20.557Z,39.48
2022-09-01T08:22:10.253Z,36.65
2022-09-01T08:24:51.603Z,36.33
2022-09-01T08:27:18.856Z,36.13
2022-09-01T08:29:45.731Z,35.35
2022-09-01T08:32:13.382Z,36.71
2022-09-01T08:34:40.352Z,35.48
2022-09-01T08:37:07.600Z,33.80
2022-09-01T08:39:35.479Z,33.83
2022-09-01T08:42:20.096Z,35.33
2022-09-01T08:44:47.423Z,33.06
2022-09-01T08:47:17.236Z,31.95
2022-09-01T08:49:47.302Z,33.58
2022-09-01T08:52:31.327Z,33.77
2022-09-01T08:55:27.788Z,34.07
2022-09-01T08:57:59.746Z,34.08
2022-09-01T09:00:33.353Z,32.96
2022-09-01T09:03:40.565Z,31.02
2022-09-01T09:06:26.144Z,33.03
2022-09-01T09:08:58.095Z,30.49
2022-09-01T09:11:50.459Z,28.38
2022-09-01T09:14:20.458Z,29.64
2022-09-01T09:16:51.565Z,29.29
2022-09-01T09:19:30.993Z,30.14
2022-09-01T09:22:00.745Z,28.47
2022-09-01T09:25:03.896Z,28.25
2022-09-01T09:27:36.823Z,28.72
2022-09-01T09:30:31.569Z,29.12
2022-09-01T09:35:55.032Z,30.46
2022-09-01T09:38:29.373Z,30.10
2022-09-01T09:41:17.017Z,29.25
2022-09-01T09:44:04.656Z,29.04
2022-09-01T09:46:36.576Z,28.86
2022-09-01T09:49:35.132Z,30.19
2022-09-01T09:52:10.310Z,29.28
2022-09-01T09:54:57.599Z,31.12
2022-09-01T09:57:24.727Z,29.59
2022-09-01T10:00:01.446Z,29.59
2022-09-01T10:02:33.339Z,30.29
2022-09-01T10:05:41.724Z,30.49
2022-09-01T10:08:34.971Z,30.86
2022-09-01T10:11:02.283Z,29.69
2022-09-01T10:13:33.115Z,29.06
2022-09-01T10:16:03.767Z,27.69
2022-09-01T10:18:45.248Z,27.89
2022-09-01T10:21:17.699Z,27.78
2022-09-01T10:23:44.822Z,27.91
2022-09-01T10:26:18.875Z,27.06
2022-09-01T10:28:56.888Z,28.17
2022-09-01T10:31:29.526Z,29.54
2022-09-01T10:34:02.877Z,29.49
2022-09-01T10:36:33.796Z,29.73
2022-09-01T10:39:06.208Z,30.49
2022-09-01T10:42:07.753Z,29.96
2022-09-01T10:44:36.569Z,30.04
2022-09-01T10:47:30.279Z,29.97
2022-09-01T10:50:00.144Z,31.33
2022-09-01T10:52:43.907Z,30.30
2022-09-01T10:55:24.746Z,31.81
2022-09-01T10:57:56.140Z,31.57
2022-09-01T11:00:38.993Z,32.23
2022-09-01T11:06:13.024Z,31.18
2022-09-01T11:08:59.259Z,28.63
2022-09-01T11:11:41.794Z,28.27
2022-09-01T11:14:23.345Z,27.67
2022-09-01T11:17:13.576Z,29.49
2022-09-01T11:19:55.715Z,28.15
2022-09-01T11:22:32.770Z,26.90
2022-09-01T11:25:41.292Z,27.20
2022-09-01T11:28:10.821Z,29.61
2022-09-01T11:30:53.127Z,30.75
2022-09-01T11:33:32.230Z,31.56
2022-09-01T11:36:12.480Z,32.27
2022-09-01T11:39:14.651Z,32.36
2022-09-01T11:41:55.740Z,33.08
2022-09-01T11:44:42.572Z,33.36
2022-09-01T11:47:40.766Z,32.02
2022-09-01T11:50:16.593Z,31.96
2022-09-01T11:52:43.666Z,33.03
2022-09-01T11:55:10.719Z,32.89
2022-09-01T11:57:40.405Z,33.71
2022-09-01T12:00:13.462Z,32.99
2022-09-01T12:02:46.373Z,34.00
2022-09-01T12:05:35.598Z,35.74
2022-09-01T12:08:04.666Z,33.80
2022-09-01T12:10:38.653Z,37.28
2022-09-01T12:13:12.344Z,36.02
2022-09-01T12:16:13.957Z,35.60
2022-09-01T12:18:31.896Z,35.41
2022-09-01T12:21:02.287Z,36.09
2022-09-01T12:23:34.367Z,34.59
2022-09-01T12:26:03.679Z,36.50
2022-09-01T12:28:31.882Z,36.38
2022-09-01T12:31:09.312Z,34.77
2022-09-01T12:33:36.717Z,37.36
2022-09-01T12:36:26.283Z,37.35
2022-09-01T12:38:55.143Z,38.16
2022-09-01T12:41:24.919Z,36.37
2022-09-01T12:43:54.658Z,37.57
2022-09-01T12:46:44.884Z,36.87
2022-09-01T12:49:20.119Z,35.64
2022-09-01T12:51:48.713Z,36.35
2022-09-01T12:54:16.232Z,36.06
2022-09-01T12:56:48.653Z,36.53
2022-09-01T12:59:36.127Z,37.44
2022-09-01T13:02:27.464Z,37.10
2022-09-01T13:04:54.330Z,39.41
2022-09-01T13:07:21.239Z,39.05
2022-09-01T13:09:48.063Z,38.61
2022-09-01T13:12:21.544Z,39.23
2022-09-01T13:14:48.309Z,37.38
2022-09-01T13:17:15.198Z,37.48
2022-09-01T13:19:42.451Z,35.84
2022-09-01T13:22:09.339Z,35.91
2022-09-01T13:24:36.099Z,34.92
2022-09-01T13:29:50.516Z,33.82
2022-09-01T13:32:20.862Z,31.24
2022-09-01T13:34:52.717Z,31.86
2022-09-01T13:37:20.992Z,33.46
2022-09-01T13:39:48.665Z,32.63
2022-09-01T13:42:16.137Z,33.89
2022-09-01T13:44:44.660Z,33.01
2022-09-01T13:50:09.906Z,32.86
2022-09-01T13:52:38.756Z,32.98
2022-09-01T13:55:06.784Z,33.43
2022-09-01T13:57:36.626Z,33.78
2022-09-01T14:00:06.684Z,33.40
2022-09-01T14:02:39.250Z,32.88
2022-09-01T14:05:07.197Z,34.75
2022-09-01T14:07:34.262Z,35.25
2022-09-01T14:10:01.283Z,34.51
2022-09-01T14:12:30.406Z,34.79
2022-09-01T14:15:16.502Z,33.14
2022-09-01T14:17:46.024Z,33.66
2022-09-01T14:20:16.284Z,34.04
2022-09-01T14:22:43.279Z,34.57
2022-09-01T14:25:10.983Z,35.62
2022-09-01T14:27:38.473Z,34.83
2022-09-01T14:30:07.724Z,34.36
2022-09-01T14:32:35.157Z,35.16
2022-09-01T14:35:02.365Z,38.21
2022-09-01T14:37:29.463Z,35.56
2022-09-01T14:39:57.446Z,36.45
2022-09-01T14:42:29.281Z,36.93
2022-09-01T14:44:56.539Z,36.80
2022-09-01T14:47:25.809Z,36.12
2022-09-01T14:49:53.623Z,35.54
2022-09-01T14:52:22.235Z,37.14
2022-09-01T14:54:49.719Z,37.28
2022-09-01T14:57:37.612Z,36.97
2022-09-01T15:00:15.151Z,35.23
2022-09-01T15:02:43.025Z,33.93
2022-09-01T15:05:11.147Z,35.82
2022-09-01T15:07:38.650Z,36.27
2022-09-01T15:10:08.619Z,35.78
2022-09-01T15:12:35.612Z,37.13
2022-09-01T15:15:02.489Z,36.67
2022-09-01T15:17:29.636Z,36.29
2022-09-01T15:19:56.432Z,37.40
2022-09-01T15:22:23.152Z,37.82
2022-09-01T15:24:49.849Z,36.75
2022-09-01T15:27:16.663Z,36.35
2022-09-01T15:29:48.115Z,36.51
2022-09-01T15:32:27.447Z,38.06
2022-09-01T15:34:55.326Z,38.77
2022-09-01T15:37:22.067Z,37.71
2022-09-01T15:39:48.850Z,39.05
2022-09-01T15:42:17.545Z,39.28
2022-09-01T15:44:44.489Z,39.05
2022-09-01T15:47:11.319Z,38.34
2022-09-01T15:49:38.079Z,38.98
2022-09-01T15:52:04.841Z,37.42
2022-09-01T15:54:31.729Z,38.02
2022-09-01T15:56:58.597Z,38.41
2022-09-01T15:59:25.378Z,39.03
2022-09-01T16:01:54.565Z,39.64
2022-09-01T16:04:27.552Z,40.02
2022-09-01T16:06:56.706Z,40.82
2022-09-01T16:09:23.641Z,40.44
2022-09-01T16:11:50.646Z,40.01
2022-09-01T16:14:17.466Z,40.46
2022-09-01T16:16:48.512Z,39.39
2022-09-01T16:19:22.718Z,39.91
2022-09-01T16:21:56.921Z,40.45
2022-09-01T16:24:24.338Z,40.58
2022-09-01T16:26:52.467Z,40.89
2022-09-01T16:29:30.768Z,41.76
2022-09-01T16:31:57.628Z,41.26
2022-09-01T16:34:27.805Z,41.67
2022-09-01T16:37:00.782Z,42.41
2022-09-01T16:39:39.177Z,43.09
2022-09-01T16:42:22.924Z,42.78
2022-09-01T16:45:01.942Z,42.96
2022-09-01T16:47:44.369Z,43.38
2022-09-01T16:50:20.967Z,43.66
2022-09-01T16:53:14.193Z,43.88
2022-09-01T16:56:10.998Z,43.27
2022-09-01T16:58:44.817Z,43.45
2022-09-01T17:01:36.834Z,44.54
2022-09-01T17:04:22.427Z,44.55
2022-09-01T17:06:57.582Z,44.42
2022-09-01T17:09:54.193Z,44.61
2022-09-01T17:12:47.051Z,44.62
2022-09-01T17:15:22.623Z,45.59
2022-09-01T17:18:10.217Z,45.19
2022-09-01T17:20:57.999Z,45.98
2022-09-01T17:23:28.437Z,46.34
2022-09-01T17:25:59.069Z,45.67
2022-09-01T17:28:38.798Z,45.44
2022-09-01T17:31:17.856Z,46.16
2022-09-01T17:33:47.521Z,46.81
2022-09-01T17:36:52.813Z,47.06
2022-09-01T17:39:57.067Z,47.67
2022-09-01T17:42:27.611Z,47.28
2022-09-01T17:44:59.757Z,46.32
2022-09-01T17:47:44.778Z,46.99
2022-09-01T17:50:50.248Z,46.76
2022-09-01T17:53:35.343Z,47.99
2022-09-01T17:56:09.228Z,48.66
2022-09-01T17:58:42.460Z,48.05
2022-09-01T18:01:19.349Z,48.40
2022-09-01T18:04:24.232Z,49.10
2022-09-01T18:06:56.735Z,49.38
2022-09-01T18:09:26.065Z,49.17
2022-09-01T18:12:05.325Z,48.89
2022-09-01T18:14:40.115Z,49.12
2022-09-01T18:17:19.363Z,49.65
2022-09-01T18:19:48.737Z,49.75
2022-09-01T18:22:19.292Z,50.35
2022-09-01T18:24:54.880Z,50.27
2022-09-01T18:27:24.663Z,50.76
2022-09-01T18:29:53.023Z,51.14
2022-09-01T18:32:38.592Z,51.34
2022-09-01T18:35:26.619Z,52.10
2022-09-01T18:37:59.330Z,52.16
2022-09-01T18:40:34.069Z,52.33
2022-09-01T18:43:31.059Z,52.37
2022-09-01T18:46:20.956Z,53.49
2022-09-01T18:48:56.949Z,53.68
2022-09-01T18:51:30.346Z,53.52
2022-09-01T18:54:02.785Z,54.13
2022-09-01T18:57:01.916Z,54.53
2022-09-01T18:59:48.678Z,54.00
2022-09-01T19:02:51.169Z,54.27
2022-09-01T19:05:46.174Z,54.75
2022-09-01T19:08:42.734Z,55.44
2022-09-01T19:11:30.751Z,55.26
2022-09-01T19:14:16.665Z,55.88
2022-09-01T19:17:08.890Z,56.02
2022-09-01T19:19:45.380Z,56.35
2022-09-01T19:22:21.680Z,56.55
2022-09-01T19:25:15.956Z,57.02
2022-09-01T19:27:42.750Z,57.07
2022-09-01T19:30:12.641Z,57.54
2022-09-01T19:32:39.436Z,57.82
2022-09-01T19:35:15.850Z,57.97
2022-09-01T19:37:44.596Z,58.48
2022-09-01T19:40:11.758Z,58.19
2022-09-01T19:43:17.832Z,58.44
2022-09-01T19:45:59.093Z,58.60
2022-09-01T19:48:38.910Z,58.77
2022-09-01T19:51:14.035Z,58.53
2022-09-01T19:53:59.026Z,58.84
2022-09-01T19:56:28.666Z,59.21
2022-09-01T19:59:14.230Z,59.42
2022-09-01T20:01:44.047Z,59.80
2022-09-01T20:04:21.441Z,60.00
2022-09-01T20:06:51.344Z,60.23
2022-09-01T20:09:29.270Z,60.25
2022-09-01T20:12:09.124Z,60.18
2022-09-01T20:15:01.054Z,60.48
2022-09-01T20:18:03.765Z,60.38
2022-09-01T20:20:38.150Z,60.47
2022-09-01T20:23:29.389Z,60.71
2022-09-01T20:26:04.279Z,61.21
2022-09-01T20:28:55.399Z,61.55
2022-09-01T20:31:28.817Z,61.23
2022-09-01T20:34:04.685Z,61.57
2022-09-01T20:36:38.849Z,61.38
2022-09-01T20:39:30.460Z,61.40
2022-09-01T20:42:12.524Z,61.46
2022-09-01T20:44:52.323Z,61.61
2022-09-01T20:47:19.446Z,61.61
2022-09-01T20:49:46.257Z,61.84
2022-09-01T20:52:26.154Z,61.94
2022-09-01T20:55:08.071Z,62.09
2022-09-01T20:57:48.483Z,61.93
2022-09-01T21:00:23.085Z,62.25
2022-09-01T21:03:05.475Z,62.24
2022-09-01T21:05:41.209Z,62.19
2022-09-01T21:08:14.701Z,62.44
2022-09-01T21:10:48.565Z,62.06
2022-09-01T21:13:26.715Z,62.27
2022-09-01T21:16:04.950Z,62.00
2022-09-01T21:18:46.892Z,61.97
2022-09-01T21:21:45.612Z,62.10
2022-09-01T21:24:12.381Z,62.09
2022-09-01T21:26:40.382Z,62.16
2022-09-01T21:29:26.707Z,62.24
2022-09-01T21:31:53.488Z,62.21
2022-09-01T21:34:20.236Z,62.51
2022-09-01T21:36:46.956Z,62.43
2022-09-01T21:39:14.779Z,62.54
2022-09-01T21:41:41.583Z,62.58
2022-09-01T21:44:09.189Z,62.60
2022-09-01T21:46:35.973Z,62.56
2022-09-01T21:49:02.680Z,63.03
2022-09-01T21:51:29.466Z,63.08
2022-09-01T21:53:56.203Z,63.13
2022-09-01T21:56:25.877Z,63.05
2022-09-01T21:58:53.133Z,63.00
2022-09-01T22:01:19.934Z,63.04
2022-09-01T22:03:46.680Z,62.87
2022-09-01T22:06:13.560Z,62.89
2022-09-01T22:08:40.305Z,62.88
2022-09-01T22:11:10.005Z,63.44
2022-09-01T22:13:36.940Z,63.24
2022-09-01T22:16:03.897Z,63.21
2022-09-01T22:18:30.695Z,63.24
2022-09-01T22:21:02.601Z,62.93
2022-09-01T22:23:29.435Z,63.27
2022-09-01T22:25:56.149Z,63.31
2022-09-01T22:28:22.861Z,63.20
2022-09-01T22:30:53.700Z,63.13
2022-09-01T22:33:22.905Z,63.36
2022-09-01T22:35:54.257Z,63.28
2022-09-01T22:38:22.012Z,63.25
2022-09-01T22:40:55.611Z,63.24
2022-09-01T22:43:24.230Z,63.61
2022-09-01T22:45:51.744Z,63.81
2022-09-01T22:48:20.135Z,63.76
2022-09-01T22:50:47.795Z,64.27
2022-09-01T22:53:15.653Z,64.36
2022-09-01T22:55:45.350Z,64.46
2022-09-01T22:58:12.518Z,64.26
2022-09-01T23:00:44.242Z,64.35
2022-09-01T23:03:11.049Z,64.35
2022-09-01T23:05:37.769Z,64.21
2022-09-01T23:08:04.500Z,64.08
2022-09-01T23:10:31.603Z,64.07
2022-09-01T23:12:58.463Z,64.30
2022-09-01T23:15:25.286Z,64.69
2022-09-01T23:17:52.027Z,64.64
2022-09-01T23:20:19.062Z,64.69
2022-09-01T23:22:46.220Z,64.94
2022-09-01T23:25:14.998Z,64.60
2022-09-01T23:27:42.006Z,64.76
2022-09-01T23:30:11.057Z,64.76
2022-09-01T23:32:38.158Z,65.01
2022-09-01T23:35:05.614Z,65.07
2022-09-01T23:37:32.292Z,65.05
2022-09-01T23:39:58.988Z,65.30
2022-09-01T23:42:25.723Z,65.38
2022-09-01T23:44:52.414Z,65.32
2022-09-01T23:47:19.747Z,65.43
2022-09-01T23:49:46.443Z,65.48
2022-09-01T23:52:13.178Z,65.76
2022-09-01T23:54:40.003Z,65.77
2022-09-01T23:57:06.784Z,66.02
2022-09-01T23:59:33.516Z,65.94
